sensor_id;sensor_type;location;lat;lon;timestamp;P1;P2;P0
55304;PMS7003;65692;51.378;19.824;2023-03-22T00:00:24;99.50;75.00;48.50
55304;PMS7003;65692;51.378;19.824;2023-03-22T00:02:54;101.00;74.00;49.25
55304;PMS7003;65692;51.378;19.824;2023-03-22T00:05:20;102.75;76.50;51.00
55304;PMS7003;65692;51.378;19.824;2023-03-22T00:07:47;97.75;71.25;46.75
55304;PMS7003;65692;51.378;19.824;2023-03-22T00:10:15;97.25;70.00;45.50
55304;PMS7003;65692;51.378;19.824;2023-03-22T00:12:41;85.75;64.75;44.50
55304;PMS7003;65692;51.378;19.824;2023-03-22T00:15:08;93.25;69.25;45.25
55304;PMS7003;65692;51.378;19.824;2023-03-22T00:17:36;85.75;67.50;42.00
55304;PMS7003;65692;51.378;19.824;2023-03-22T00:20:03;101.50;69.75;46.00
55304;PMS7003;65692;51.378;19.824;2023-03-22T00:22:31;60.00;44.50;17.25
55304;PMS7003;65692;51.378;19.824;2023-03-22T00:24:58;88.50;67.75;43.75
55304;PMS7003;65692;51.378;19.824;2023-03-22T00:27:24;104.50;75.75;46.50
55304;PMS7003;65692;51.378;19.824;2023-03-22T00:29:51;111.50;88.25;51.25
55304;PMS7003;65692;51.378;19.824;2023-03-22T00:32:17;117.00;86.00;51.00
55304;PMS7003;65692;51.378;19.824;2023-03-22T00:34:44;121.25;95.00;57.25
55304;PMS7003;65692;51.378;19.824;2023-03-22T00:37:10;103.25;79.25;50.50
55304;PMS7003;65692;51.378;19.824;2023-03-22T00:39:37;92.50;67.50;41.75
55304;PMS7003;65692;51.378;19.824;2023-03-22T00:42:04;98.75;70.25;43.75
55304;PMS7003;65692;51.378;19.824;2023-03-22T00:44:31;89.75;67.25;43.00
55304;PMS7003;65692;51.378;19.824;2023-03-22T00:46:58;89.75;63.75;41.00
55304;PMS7003;65692;51.378;19.824;2023-03-22T00:49:24;86.00;63.25;40.75
55304;PMS7003;65692;51.378;19.824;2023-03-22T00:51:51;95.25;73.75;47.00
55304;PMS7003;65692;51.378;19.824;2023-03-22T00:54:17;99.00;72.50;46.00
55304;PMS7003;65692;51.378;19.824;2023-03-22T00:56:44;87.75;66.25;40.75
55304;PMS7003;65692;51.378;19.824;2023-03-22T00:59:11;84.00;63.25;41.25
55304;PMS7003;65692;51.378;19.824;2023-03-22T01:01:38;84.75;67.00;44.50
55304;PMS7003;65692;51.378;19.824;2023-03-22T01:04:04;88.75;65.25;41.75
55304;PMS7003;65692;51.378;19.824;2023-03-22T01:06:31;92.00;67.25;44.75
55304;PMS7003;65692;51.378;19.824;2023-03-22T01:08:58;88.25;66.00;41.25
55304;PMS7003;65692;51.378;19.824;2023-03-22T01:11:25;86.25;63.50;41.00
55304;PMS7003;65692;51.378;19.824;2023-03-22T01:13:52;87.25;64.75;40.75
55304;PMS7003;65692;51.378;19.824;2023-03-22T01:16:18;88.25;66.75;42.75
55304;PMS7003;65692;51.378;19.824;2023-03-22T01:18:45;81.25;63.75;42.25
55304;PMS7003;65692;51.378;19.824;2023-03-22T01:21:11;76.75;59.25;38.25
55304;PMS7003;65692;51.378;19.824;2023-03-22T01:23:38;86.75;62.00;40.75
55304;PMS7003;65692;51.378;19.824;2023-03-22T01:26:05;77.50;59.50;36.25
55304;PMS7003;65692;51.378;19.824;2023-03-22T01:28:31;69.75;56.25;38.50
55304;PMS7003;65692;51.378;19.824;2023-03-22T01:31:01;78.50;57.25;39.25
55304;PMS7003;65692;51.378;19.824;2023-03-22T01:33:27;77.00;59.00;38.00
55304;PMS7003;65692;51.378;19.824;2023-03-22T01:35:54;83.00;61.75;40.00
55304;PMS7003;65692;51.378;19.824;2023-03-22T01:38:21;78.00;57.75;39.25
55304;PMS7003;65692;51.378;19.824;2023-03-22T01:40:47;77.50;57.50;37.25
55304;PMS7003;65692;51.378;19.824;2023-03-22T01:43:14;90.00;66.00;43.00
55304;PMS7003;65692;51.378;19.824;2023-03-22T01:45:43;83.00;63.50;39.50
55304;PMS7003;65692;51.378;19.824;2023-03-22T01:48:13;90.75;65.50;44.25
55304;PMS7003;65692;51.378;19.824;2023-03-22T01:50:41;92.25;68.50;44.50
55304;PMS7003;65692;51.378;19.824;2023-03-22T01:53:09;92.00;68.25;44.25
55304;PMS7003;65692;51.378;19.824;2023-03-22T01:55:39;81.25;59.50;38.00
55304;PMS7003;65692;51.378;19.824;2023-03-22T01:58:06;89.75;67.75;44.00
55304;PMS7003;65692;51.378;19.824;2023-03-22T02:00:32;83.00;61.00;39.50
55304;PMS7003;65692;51.378;19.824;2023-03-22T02:02:59;72.75;56.50;37.25
55304;PMS7003;65692;51.378;19.824;2023-03-22T02:05:26;81.00;58.50;40.00
55304;PMS7003;65692;51.378;19.824;2023-03-22T02:07:52;63.50;46.50;34.50
55304;PMS7003;65692;51.378;19.824;2023-03-22T02:10:21;67.25;51.75;34.25
55304;PMS7003;65692;51.378;19.824;2023-03-22T02:13:00;67.25;50.50;33.75
55304;PMS7003;65692;51.378;19.824;2023-03-22T02:23:59;67.00;51.50;37.75
55304;PMS7003;65692;51.378;19.824;2023-03-22T02:26:23;64.50;50.75;34.00
55304;PMS7003;65692;51.378;19.824;2023-03-22T02:29:17;67.25;45.50;29.25
55304;PMS7003;65692;51.378;19.824;2023-03-22T02:39:34;65.00;48.50;33.00
55304;PMS7003;65692;51.378;19.824;2023-03-22T02:44:57;74.25;53.25;34.25
55304;PMS7003;65692;51.378;19.824;2023-03-22T02:49:55;57.00;49.00;34.00
55304;PMS7003;65692;51.378;19.824;2023-03-22T02:52:37;59.75;47.00;29.25
55304;PMS7003;65692;51.378;19.824;2023-03-22T02:57:49;60.50;48.25;32.75
55304;PMS7003;65692;51.378;19.824;2023-03-22T03:00:19;72.75;53.25;35.00
55304;PMS7003;65692;51.378;19.824;2023-03-22T03:02:48;70.75;52.00;33.00
55304;PMS7003;65692;51.378;19.824;2023-03-22T03:05:16;91.75;66.50;44.00
55304;PMS7003;65692;51.378;19.824;2023-03-22T03:07:47;78.75;54.50;36.50
55304;PMS7003;65692;51.378;19.824;2023-03-22T03:10:19;59.25;51.25;36.75
55304;PMS7003;65692;51.378;19.824;2023-03-22T03:12:56;50.50;42.50;29.50
55304;PMS7003;65692;51.378;19.824;2023-03-22T03:15:26;61.00;48.00;33.25
55304;PMS7003;65692;51.378;19.824;2023-03-22T03:34:46;69.00;51.50;34.00
55304;PMS7003;65692;51.378;19.824;2023-03-22T03:37:16;75.50;59.50;39.25
55304;PMS7003;65692;51.378;19.824;2023-03-22T03:39:46;107.75;78.25;52.00
55304;PMS7003;65692;51.378;19.824;2023-03-22T03:42:14;104.75;76.25;51.00
55304;PMS7003;65692;51.378;19.824;2023-03-22T03:44:41;111.00;89.25;51.75
55304;PMS7003;65692;51.378;19.824;2023-03-22T03:47:08;113.75;84.00;53.50
55304;PMS7003;65692;51.378;19.824;2023-03-22T03:49:35;82.25;64.50;40.75
55304;PMS7003;65692;51.378;19.824;2023-03-22T03:52:02;65.75;51.25;34.00
55304;PMS7003;65692;51.378;19.824;2023-03-22T03:59:59;62.25;48.75;32.25
55304;PMS7003;65692;51.378;19.824;2023-03-22T04:02:26;66.50;52.00;33.00
55304;PMS7003;65692;51.378;19.824;2023-03-22T04:07:39;77.25;57.00;38.25
55304;PMS7003;65692;51.378;19.824;2023-03-22T04:10:05;43.25;30.25;15.75
55304;PMS7003;65692;51.378;19.824;2023-03-22T04:12:32;75.00;54.00;37.25
55304;PMS7003;65692;51.378;19.824;2023-03-22T04:15:02;69.25;52.25;36.50
55304;PMS7003;65692;51.378;19.824;2023-03-22T04:17:29;68.50;53.25;36.00
55304;PMS7003;65692;51.378;19.824;2023-03-22T04:20:07;71.00;55.75;38.00
55304;PMS7003;65692;51.378;19.824;2023-03-22T04:22:48;74.00;55.75;38.75
55304;PMS7003;65692;51.378;19.824;2023-03-22T04:25:20;67.00;51.25;35.25
55304;PMS7003;65692;51.378;19.824;2023-03-22T04:27:50;71.00;51.25;34.00
55304;PMS7003;65692;51.378;19.824;2023-03-22T04:30:17;73.25;53.00;37.75
55304;PMS7003;65692;51.378;19.824;2023-03-22T04:32:50;66.00;53.75;33.50
55304;PMS7003;65692;51.378;19.824;2023-03-22T04:35:17;66.25;48.75;33.25
55304;PMS7003;65692;51.378;19.824;2023-03-22T04:37:44;78.75;57.75;37.50
55304;PMS7003;65692;51.378;19.824;2023-03-22T04:40:11;70.00;49.75;31.00
55304;PMS7003;65692;51.378;19.824;2023-03-22T04:42:42;65.50;50.50;34.25
55304;PMS7003;65692;51.378;19.824;2023-03-22T04:45:09;66.50;50.50;35.00
55304;PMS7003;65692;51.378;19.824;2023-03-22T04:47:36;64.00;43.00;28.50
55304;PMS7003;65692;51.378;19.824;2023-03-22T04:50:04;71.25;51.50;35.00
55304;PMS7003;65692;51.378;19.824;2023-03-22T04:52:31;57.00;45.50;31.25
55304;PMS7003;65692;51.378;19.824;2023-03-22T04:54:58;65.50;48.25;33.25
55304;PMS7003;65692;51.378;19.824;2023-03-22T04:57:25;66.00;50.00;34.00
55304;PMS7003;65692;51.378;19.824;2023-03-22T04:59:51;68.00;52.50;34.50
55304;PMS7003;65692;51.378;19.824;2023-03-22T05:02:18;59.75;45.50;30.25
55304;PMS7003;65692;51.378;19.824;2023-03-22T05:04:44;62.50;49.00;32.75
55304;PMS7003;65692;51.378;19.824;2023-03-22T05:07:10;55.00;46.25;32.25
55304;PMS7003;65692;51.378;19.824;2023-03-22T05:09:37;66.75;51.25;33.25
55304;PMS7003;65692;51.378;19.824;2023-03-22T05:12:03;65.50;49.25;32.75
55304;PMS7003;65692;51.378;19.824;2023-03-22T05:14:30;54.25;46.75;32.00
55304;PMS7003;65692;51.378;19.824;2023-03-22T05:16:56;63.50;50.00;32.00
55304;PMS7003;65692;51.378;19.824;2023-03-22T05:19:23;60.50;46.50;33.25
55304;PMS7003;65692;51.378;19.824;2023-03-22T05:21:50;68.75;50.00;33.25
55304;PMS7003;65692;51.378;19.824;2023-03-22T05:24:23;67.75;52.25;33.00
55304;PMS7003;65692;51.378;19.824;2023-03-22T05:26:50;67.00;49.25;31.50
55304;PMS7003;65692;51.378;19.824;2023-03-22T05:29:19;64.25;50.25;33.00
55304;PMS7003;65692;51.378;19.824;2023-03-22T05:31:46;60.75;49.00;33.75
55304;PMS7003;65692;51.378;19.824;2023-03-22T05:34:13;67.75;50.00;33.50
55304;PMS7003;65692;51.378;19.824;2023-03-22T05:36:39;53.75;40.25;28.00
55304;PMS7003;65692;51.378;19.824;2023-03-22T05:39:06;59.25;46.25;30.75
55304;PMS7003;65692;51.378;19.824;2023-03-22T05:41:33;66.75;49.00;34.25
55304;PMS7003;65692;51.378;19.824;2023-03-22T05:44:01;57.25;42.00;29.75
55304;PMS7003;65692;51.378;19.824;2023-03-22T05:46:28;88.75;66.25;42.75
55304;PMS7003;65692;51.378;19.824;2023-03-22T05:48:54;82.50;58.25;38.25
55304;PMS7003;65692;51.378;19.824;2023-03-22T05:51:21;80.75;57.00;38.00
55304;PMS7003;65692;51.378;19.824;2023-03-22T05:53:51;67.25;50.75;32.50
55304;PMS7003;65692;51.378;19.824;2023-03-22T05:56:18;68.75;54.50;36.50
55304;PMS7003;65692;51.378;19.824;2023-03-22T05:58:49;65.00;49.25;32.00
55304;PMS7003;65692;51.378;19.824;2023-03-22T06:01:17;74.25;58.25;37.00
55304;PMS7003;65692;51.378;19.824;2023-03-22T06:03:45;65.75;52.75;35.00
55304;PMS7003;65692;51.378;19.824;2023-03-22T06:06:13;67.50;53.00;33.00
55304;PMS7003;65692;51.378;19.824;2023-03-22T06:08:39;64.25;50.00;33.50
55304;PMS7003;65692;51.378;19.824;2023-03-22T06:11:06;59.75;43.00;29.75
55304;PMS7003;65692;51.378;19.824;2023-03-22T06:13:33;66.25;50.75;34.00
55304;PMS7003;65692;51.378;19.824;2023-03-22T06:16:00;59.25;49.00;30.50
55304;PMS7003;65692;51.378;19.824;2023-03-22T06:18:27;67.00;52.00;33.00
55304;PMS7003;65692;51.378;19.824;2023-03-22T06:20:54;67.50;50.50;35.00
55304;PMS7003;65692;51.378;19.824;2023-03-22T06:23:20;64.25;49.50;31.75
55304;PMS7003;65692;51.378;19.824;2023-03-22T06:25:47;72.75;55.25;35.50
55304;PMS7003;65692;51.378;19.824;2023-03-22T06:28:13;75.50;57.50;36.25
55304;PMS7003;65692;51.378;19.824;2023-03-22T06:30:40;72.00;55.50;36.00
55304;PMS7003;65692;51.378;19.824;2023-03-22T06:33:07;66.75;51.75;35.00
55304;PMS7003;65692;51.378;19.824;2023-03-22T06:35:34;73.25;52.75;35.50
55304;PMS7003;65692;51.378;19.824;2023-03-22T06:38:00;61.75;48.50;34.00
55304;PMS7003;65692;51.378;19.824;2023-03-22T06:40:27;72.25;53.75;36.00
55304;PMS7003;65692;51.378;19.824;2023-03-22T06:42:53;70.00;54.00;34.50
55304;PMS7003;65692;51.378;19.824;2023-03-22T06:45:20;65.50;50.00;32.00
55304;PMS7003;65692;51.378;19.824;2023-03-22T06:47:47;64.75;51.50;34.75
55304;PMS7003;65692;51.378;19.824;2023-03-22T06:50:13;59.25;50.50;33.25
55304;PMS7003;65692;51.378;19.824;2023-03-22T06:52:40;70.75;52.75;34.25
55304;PMS7003;65692;51.378;19.824;2023-03-22T06:55:07;67.00;48.50;31.00
55304;PMS7003;65692;51.378;19.824;2023-03-22T06:57:34;63.00;50.00;33.25
55304;PMS7003;65692;51.378;19.824;2023-03-22T07:00:00;66.00;50.75;33.25
55304;PMS7003;65692;51.378;19.824;2023-03-22T07:02:27;55.75;43.25;28.00
55304;PMS7003;65692;51.378;19.824;2023-03-22T07:04:53;64.50;44.75;29.50
55304;PMS7003;65692;51.378;19.824;2023-03-22T07:07:19;65.50;50.00;32.25
55304;PMS7003;65692;51.378;19.824;2023-03-22T07:09:46;56.00;43.75;31.75
55304;PMS7003;65692;51.378;19.824;2023-03-22T07:12:12;61.00;47.00;30.00
55304;PMS7003;65692;51.378;19.824;2023-03-22T07:14:39;66.50;46.75;31.25
55304;PMS7003;65692;51.378;19.824;2023-03-22T07:17:06;62.50;47.50;31.25
55304;PMS7003;65692;51.378;19.824;2023-03-22T07:19:32;61.25;47.25;31.25
55304;PMS7003;65692;51.378;19.824;2023-03-22T07:21:58;63.50;48.00;32.00
55304;PMS7003;65692;51.378;19.824;2023-03-22T07:24:25;59.75;48.25;32.25
55304;PMS7003;65692;51.378;19.824;2023-03-22T07:26:51;64.25;48.25;32.00
55304;PMS7003;65692;51.378;19.824;2023-03-22T07:29:18;61.00;48.75;32.25
55304;PMS7003;65692;51.378;19.824;2023-03-22T07:31:44;58.75;43.50;31.50
55304;PMS7003;65692;51.378;19.824;2023-03-22T07:34:11;57.75;47.00;33.25
55304;PMS7003;65692;51.378;19.824;2023-03-22T07:36:37;61.75;46.00;31.50
55304;PMS7003;65692;51.378;19.824;2023-03-22T07:39:04;68.75;53.00;33.75
55304;PMS7003;65692;51.378;19.824;2023-03-22T07:41:31;68.25;50.25;33.00
55304;PMS7003;65692;51.378;19.824;2023-03-22T07:43:57;64.25;48.75;31.00
55304;PMS7003;65692;51.378;19.824;2023-03-22T07:46:42;63.00;47.75;32.50
55304;PMS7003;65692;51.378;19.824;2023-03-22T07:49:08;64.75;49.75;32.00
55304;PMS7003;65692;51.378;19.824;2023-03-22T07:51:35;53.25;40.75;27.75
55304;PMS7003;65692;51.378;19.824;2023-03-22T07:54:01;58.25;48.00;31.25
55304;PMS7003;65692;51.378;19.824;2023-03-22T07:56:28;68.00;49.00;31.50
55304;PMS7003;65692;51.378;19.824;2023-03-22T07:58:54;66.50;47.25;31.00
55304;PMS7003;65692;51.378;19.824;2023-03-22T08:01:21;66.25;50.75;31.50
55304;PMS7003;65692;51.378;19.824;2023-03-22T08:03:47;63.00;46.75;31.25
55304;PMS7003;65692;51.378;19.824;2023-03-22T08:06:14;53.75;42.75;26.25
55304;PMS7003;65692;51.378;19.824;2023-03-22T08:08:41;50.25;37.25;14.00
55304;PMS7003;65692;51.378;19.824;2023-03-22T08:11:09;63.00;48.00;32.25
55304;PMS7003;65692;51.378;19.824;2023-03-22T08:13:35;67.25;47.00;30.25
55304;PMS7003;65692;51.378;19.824;2023-03-22T08:16:03;60.75;45.75;31.25
55304;PMS7003;65692;51.378;19.824;2023-03-22T08:18:29;63.25;49.75;34.00
55304;PMS7003;65692;51.378;19.824;2023-03-22T08:20:56;62.50;46.50;30.00
55304;PMS7003;65692;51.378;19.824;2023-03-22T08:23:24;65.00;50.25;33.25
55304;PMS7003;65692;51.378;19.824;2023-03-22T08:26:06;67.75;51.50;32.25
55304;PMS7003;65692;51.378;19.824;2023-03-22T08:28:32;70.00;53.50;33.25
55304;PMS7003;65692;51.378;19.824;2023-03-22T08:30:59;68.00;53.00;32.75
55304;PMS7003;65692;51.378;19.824;2023-03-22T08:33:25;70.50;52.25;34.25
55304;PMS7003;65692;51.378;19.824;2023-03-22T08:36:02;67.50;52.50;34.25
55304;PMS7003;65692;51.378;19.824;2023-03-22T08:38:29;64.00;48.00;29.00
55304;PMS7003;65692;51.378;19.824;2023-03-22T08:40:56;66.00;51.50;33.00
55304;PMS7003;65692;51.378;19.824;2023-03-22T08:43:22;69.00;49.50;32.00
55304;PMS7003;65692;51.378;19.824;2023-03-22T08:45:48;67.25;52.25;33.00
55304;PMS7003;65692;51.378;19.824;2023-03-22T08:48:15;66.75;49.25;32.75
55304;PMS7003;65692;51.378;19.824;2023-03-22T08:50:41;64.50;49.25;31.00
55304;PMS7003;65692;51.378;19.824;2023-03-22T08:53:08;60.50;46.25;30.50
55304;PMS7003;65692;51.378;19.824;2023-03-22T08:55:36;69.25;51.75;33.50
55304;PMS7003;65692;51.378;19.824;2023-03-22T08:58:03;62.00;49.25;31.00
55304;PMS7003;65692;51.378;19.824;2023-03-22T09:00:30;64.50;50.00;32.25
55304;PMS7003;65692;51.378;19.824;2023-03-22T09:03:13;65.75;49.50;33.75
55304;PMS7003;65692;51.378;19.824;2023-03-22T09:05:39;70.50;54.00;33.75
55304;PMS7003;65692;51.378;19.824;2023-03-22T09:08:07;71.25;53.00;33.75
55304;PMS7003;65692;51.378;19.824;2023-03-22T09:10:33;75.00;57.25;36.25
55304;PMS7003;65692;51.378;19.824;2023-03-22T09:13:03;68.00;52.00;32.25
55304;PMS7003;65692;51.378;19.824;2023-03-22T09:15:29;57.50;46.25;30.25
55304;PMS7003;65692;51.378;19.824;2023-03-22T09:17:56;63.25;49.25;33.00
55304;PMS7003;65692;51.378;19.824;2023-03-22T09:20:22;66.25;49.75;32.50
55304;PMS7003;65692;51.378;19.824;2023-03-22T09:22:51;62.75;49.25;33.00
55304;PMS7003;65692;51.378;19.824;2023-03-22T09:25:17;64.75;51.25;32.75
55304;PMS7003;65692;51.378;19.824;2023-03-22T09:27:44;60.25;48.75;31.75
55304;PMS7003;65692;51.378;19.824;2023-03-22T09:30:11;62.25;45.75;29.25
55304;PMS7003;65692;51.378;19.824;2023-03-22T09:32:37;64.50;50.50;32.00
55304;PMS7003;65692;51.378;19.824;2023-03-22T09:35:04;58.00;47.50;30.00
55304;PMS7003;65692;51.378;19.824;2023-03-22T09:37:32;59.75;47.75;31.50
55304;PMS7003;65692;51.378;19.824;2023-03-22T09:39:59;64.50;46.75;32.75
55304;PMS7003;65692;51.378;19.824;2023-03-22T09:42:31;60.75;48.75;32.25
55304;PMS7003;65692;51.378;19.824;2023-03-22T09:44:59;66.00;49.00;31.75
55304;PMS7003;65692;51.378;19.824;2023-03-22T09:47:30;65.00;49.00;31.50
55304;PMS7003;65692;51.378;19.824;2023-03-22T09:50:28;70.25;53.25;33.75
55304;PMS7003;65692;51.378;19.824;2023-03-22T09:52:56;60.50;48.75;32.00
55304;PMS7003;65692;51.378;19.824;2023-03-22T09:55:37;56.50;45.50;29.50
55304;PMS7003;65692;51.378;19.824;2023-03-22T10:00:44;65.75;49.50;32.25
55304;PMS7003;65692;51.378;19.824;2023-03-22T10:03:26;58.25;47.25;30.50
55304;PMS7003;65692;51.378;19.824;2023-03-22T10:11:21;53.50;43.75;28.00
55304;PMS7003;65692;51.378;19.824;2023-03-22T10:13:54;52.25;42.50;28.00
55304;PMS7003;65692;51.378;19.824;2023-03-22T10:16:27;58.33;44.00;27.33
55304;PMS7003;65692;51.378;19.824;2023-03-22T10:18:57;51.67;40.00;27.00
55304;PMS7003;65692;51.378;19.824;2023-03-22T10:21:26;43.67;34.67;24.00
55304;PMS7003;65692;51.378;19.824;2023-03-22T10:23:55;40.00;36.50;25.25
55304;PMS7003;65692;51.378;19.824;2023-03-22T10:26:31;37.00;33.50;21.25
55304;PMS7003;65692;51.378;19.824;2023-03-22T10:31:29;45.25;35.25;23.00
55304;PMS7003;65692;51.378;19.824;2023-03-22T10:34:06;44.00;36.75;23.75
55304;PMS7003;65692;51.378;19.824;2023-03-22T10:36:36;37.25;31.00;21.25
55304;PMS7003;65692;51.378;19.824;2023-03-22T10:41:49;39.25;33.75;22.75
55304;PMS7003;65692;51.378;19.824;2023-03-22T10:44:18;45.00;35.50;23.50
55304;PMS7003;65692;51.378;19.824;2023-03-22T10:46:45;43.25;36.25;24.00
55304;PMS7003;65692;51.378;19.824;2023-03-22T10:49:17;39.00;32.00;21.25
55304;PMS7003;65692;51.378;19.824;2023-03-22T10:51:50;37.75;33.00;22.75
55304;PMS7003;65692;51.378;19.824;2023-03-22T10:54:19;35.25;31.00;21.25
55304;PMS7003;65692;51.378;19.824;2023-03-22T10:56:46;36.25;32.50;22.25
55304;PMS7003;65692;51.378;19.824;2023-03-22T11:01:58;34.00;31.00;19.00
55304;PMS7003;65692;51.378;19.824;2023-03-22T11:04:26;35.25;30.75;22.00
55304;PMS7003;65692;51.378;19.824;2023-03-22T11:06:56;39.75;33.75;22.50
55304;PMS7003;65692;51.378;19.824;2023-03-22T11:09:22;39.25;33.75;22.25
55304;PMS7003;65692;51.378;19.824;2023-03-22T11:11:56;39.75;33.25;22.00
55304;PMS7003;65692;51.378;19.824;2023-03-22T11:14:28;38.50;32.25;21.75
55304;PMS7003;65692;51.378;19.824;2023-03-22T11:17:08;44.75;36.75;24.75
55304;PMS7003;65692;51.378;19.824;2023-03-22T11:19:41;40.25;34.00;23.75
55304;PMS7003;65692;51.378;19.824;2023-03-22T11:22:20;39.00;34.25;23.00
55304;PMS7003;65692;51.378;19.824;2023-03-22T11:24:49;30.75;28.00;21.75
55304;PMS7003;65692;51.378;19.824;2023-03-22T11:27:17;38.50;32.75;22.75
55304;PMS7003;65692;51.378;19.824;2023-03-22T11:29:46;35.25;30.00;21.50
55304;PMS7003;65692;51.378;19.824;2023-03-22T11:34:45;35.25;31.75;21.00
55304;PMS7003;65692;51.378;19.824;2023-03-22T11:37:15;35.75;29.50;21.25
55304;PMS7003;65692;51.378;19.824;2023-03-22T11:39:46;33.00;28.50;20.00
55304;PMS7003;65692;51.378;19.824;2023-03-22T11:42:19;33.75;29.75;20.25
55304;PMS7003;65692;51.378;19.824;2023-03-22T11:44:46;31.25;28.50;19.50
55304;PMS7003;65692;51.378;19.824;2023-03-22T11:47:12;38.75;33.75;22.75
55304;PMS7003;65692;51.378;19.824;2023-03-22T11:49:42;43.50;36.00;23.00
55304;PMS7003;65692;51.378;19.824;2023-03-22T11:52:21;40.00;33.75;21.00
55304;PMS7003;65692;51.378;19.824;2023-03-22T11:54:48;37.50;34.50;22.25
55304;PMS7003;65692;51.378;19.824;2023-03-22T11:57:16;34.25;30.75;21.00
55304;PMS7003;65692;51.378;19.824;2023-03-22T11:59:46;36.25;32.00;21.00
55304;PMS7003;65692;51.378;19.824;2023-03-22T12:02:20;34.00;31.25;21.00
55304;PMS7003;65692;51.378;19.824;2023-03-22T12:04:49;32.25;31.00;20.75
55304;PMS7003;65692;51.378;19.824;2023-03-22T12:07:18;37.00;32.00;20.50
55304;PMS7003;65692;51.378;19.824;2023-03-22T12:09:51;33.50;30.25;21.00
55304;PMS7003;65692;51.378;19.824;2023-03-22T12:12:21;40.50;32.25;21.50
55304;PMS7003;65692;51.378;19.824;2023-03-22T12:14:59;33.25;31.00;20.00
55304;PMS7003;65692;51.378;19.824;2023-03-22T12:17:29;22.50;20.50;14.00
55304;PMS7003;65692;51.378;19.824;2023-03-22T12:20:06;22.50;18.50;14.50
55304;PMS7003;65692;51.378;19.824;2023-03-22T12:22:39;26.75;25.75;18.00
55304;PMS7003;65692;51.378;19.824;2023-03-22T12:25:12;20.75;18.00;13.25
55304;PMS7003;65692;51.378;19.824;2023-03-22T12:30:45;30.75;28.75;20.00
55304;PMS7003;65692;51.378;19.824;2023-03-22T12:33:15;29.50;23.00;18.00
55304;PMS7003;65692;51.378;19.824;2023-03-22T12:35:43;18.00;17.50;11.50
55304;PMS7003;65692;51.378;19.824;2023-03-22T12:38:25;23.75;20.25;15.50
55304;PMS7003;65692;51.378;19.824;2023-03-22T12:40:56;24.75;20.75;17.00
55304;PMS7003;65692;51.378;19.824;2023-03-22T12:45:50;28.25;26.25;18.25
55304;PMS7003;65692;51.378;19.824;2023-03-22T12:48:19;28.50;26.75;18.75
55304;PMS7003;65692;51.378;19.824;2023-03-22T12:50:57;25.00;21.50;14.50
55304;PMS7003;65692;51.378;19.824;2023-03-22T12:53:27;27.50;26.50;18.75
55304;PMS7003;65692;51.378;19.824;2023-03-22T12:55:55;31.00;25.25;17.00
55304;PMS7003;65692;51.378;19.824;2023-03-22T12:58:24;25.50;23.00;16.75
55304;PMS7003;65692;51.378;19.824;2023-03-22T13:03:19;25.25;23.25;16.75
55304;PMS7003;65692;51.378;19.824;2023-03-22T13:05:48;23.75;22.50;18.00
55304;PMS7003;65692;51.378;19.824;2023-03-22T13:08:23;24.00;23.25;17.00
55304;PMS7003;65692;51.378;19.824;2023-03-22T13:10:58;25.50;22.75;16.75
55304;PMS7003;65692;51.378;19.824;2023-03-22T13:26:18;26.75;26.00;17.00
55304;PMS7003;65692;51.378;19.824;2023-03-22T13:28:58;26.50;22.00;17.50
55304;PMS7003;65692;51.378;19.824;2023-03-22T13:31:41;30.75;26.00;18.50
55304;PMS7003;65692;51.378;19.824;2023-03-22T13:34:13;26.25;23.00;17.50
55304;PMS7003;65692;51.378;19.824;2023-03-22T13:36:41;25.25;22.00;13.00
55304;PMS7003;65692;51.378;19.824;2023-03-22T13:39:14;32.50;29.25;21.00
55304;PMS7003;65692;51.378;19.824;2023-03-22T13:41:41;28.00;27.50;19.25
55304;PMS7003;65692;51.378;19.824;2023-03-22T13:44:30;31.25;28.00;19.50
55304;PMS7003;65692;51.378;19.824;2023-03-22T13:47:01;34.75;31.00;21.00
55304;PMS7003;65692;51.378;19.824;2023-03-22T13:51:54;32.00;25.75;20.00
55304;PMS7003;65692;51.378;19.824;2023-03-22T13:54:25;27.25;26.00;18.75
55304;PMS7003;65692;51.378;19.824;2023-03-22T13:56:55;34.00;30.50;21.00
55304;PMS7003;65692;51.378;19.824;2023-03-22T14:04:53;26.75;24.25;18.00
55304;PMS7003;65692;51.378;19.824;2023-03-22T14:09:48;21.75;20.00;16.00
55304;PMS7003;65692;51.378;19.824;2023-03-22T14:12:17;25.50;24.50;18.25
55304;PMS7003;65692;51.378;19.824;2023-03-22T14:14:47;30.75;28.00;20.00
55304;PMS7003;65692;51.378;19.824;2023-03-22T14:17:19;31.75;28.25;20.00
55304;PMS7003;65692;51.378;19.824;2023-03-22T14:19:47;32.75;26.50;20.00
55304;PMS7003;65692;51.378;19.824;2023-03-22T14:22:32;28.00;26.50;18.00
55304;PMS7003;65692;51.378;19.824;2023-03-22T14:24:59;32.25;28.00;20.00
55304;PMS7003;65692;51.378;19.824;2023-03-22T14:27:25;27.75;27.50;19.50
55304;PMS7003;65692;51.378;19.824;2023-03-22T14:29:50;35.00;30.00;20.33
55304;PMS7003;65692;51.378;19.824;2023-03-22T14:32:17;33.67;26.33;20.00
55304;PMS7003;65692;51.378;19.824;2023-03-22T14:34:45;30.00;25.25;19.50
55304;PMS7003;65692;51.378;19.824;2023-03-22T14:37:12;28.50;26.50;20.00
55304;PMS7003;65692;51.378;19.824;2023-03-22T14:39:39;37.25;32.00;21.25
55304;PMS7003;65692;51.378;19.824;2023-03-22T14:44:52;29.33;26.00;17.33
55304;PMS7003;65692;51.378;19.824;2023-03-22T14:47:20;28.00;23.00;17.50
55304;PMS7003;65692;51.378;19.824;2023-03-22T14:49:47;27.75;21.50;15.50
55304;PMS7003;65692;51.378;19.824;2023-03-22T14:52:17;27.25;24.00;18.25
55304;PMS7003;65692;51.378;19.824;2023-03-22T14:54:45;28.00;24.25;18.50
55304;PMS7003;65692;51.378;19.824;2023-03-22T14:57:12;26.00;24.00;17.75
55304;PMS7003;65692;51.378;19.824;2023-03-22T14:59:38;22.50;20.50;15.00
55304;PMS7003;65692;51.378;19.824;2023-03-22T15:04:58;31.50;27.25;19.00
55304;PMS7003;65692;51.378;19.824;2023-03-22T15:07:24;37.33;29.67;21.67
55304;PMS7003;65692;51.378;19.824;2023-03-22T15:09:50;29.33;26.67;19.33
55304;PMS7003;65692;51.378;19.824;2023-03-22T15:12:15;27.00;24.67;18.33
55304;PMS7003;65692;51.378;19.824;2023-03-22T15:14:42;27.25;26.25;18.00
55304;PMS7003;65692;51.378;19.824;2023-03-22T15:17:08;34.25;28.75;19.25
55304;PMS7003;65692;51.378;19.824;2023-03-22T15:19:42;51.33;41.33;27.67
55304;PMS7003;65692;51.378;19.824;2023-03-22T15:24:36;47.67;39.67;26.00
55304;PMS7003;65692;51.378;19.824;2023-03-22T15:27:02;48.67;40.33;27.33
55304;PMS7003;65692;51.378;19.824;2023-03-22T15:29:28;54.67;43.33;29.00